TAF AMD UMBB 230740Z 2307/2315 32003MPS 6000 BKN020
TEMPO 2307/2312 34004G09MPS 3100 -SHRA BKN005 BKN016CB
From batch tds/tafs/production/2022/9/23/h07_m59_tafs.cache.xml
Issued (9 days ago)
Forecasts
2307/2315 32006KT BKN2000

---
fcst_time_to: '2022-09-23T15:00:00Z'
sky_condition:
- sky_cover: BKN
  cloud_base_ft_agl: '2000'
wind_speed_kt: '6'
fcst_time_from: '2022-09-23T07:00:00Z'
wind_dir_degrees: '320'
visibility_statute_mi: '3.73'

TEMPO 2307/2312 34008G17KT BKN500 BKNCB1600

---
wx_string: "-SHRA"
fcst_time_to: '2022-09-23T12:00:00Z'
wind_gust_kt: '17'
sky_condition:
- - sky_cover: BKN
    cloud_base_ft_agl: '500'
- - sky_cover: BKN
    cloud_type: CB
    cloud_base_ft_agl: '1600'
wind_speed_kt: '8'
fcst_time_from: '2022-09-23T07:00:00Z'
change_indicator: TEMPO
wind_dir_degrees: '340'
visibility_statute_mi: '1.93'

talk